createdAt,value
2016-10-18T14:00:28.258Z,53
2016-10-18T14:00:47.907Z,54
2016-10-18T14:01:07.740Z,54
2016-10-18T14:01:33.343Z,54
2016-10-18T14:02:02.735Z,54
2016-10-18T14:02:22.668Z,54
2016-10-18T14:02:39.557Z,53
2016-10-18T14:02:59.164Z,54
2016-10-18T14:03:18.591Z,53
2016-10-18T14:03:35.666Z,54
2016-10-18T14:03:52.329Z,54
2016-10-18T14:04:12.648Z,54
2016-10-18T14:04:35.378Z,54
2016-10-18T14:29:19.417Z,54
2016-10-18T14:29:41.548Z,53
2016-10-18T14:29:55.374Z,54
2016-10-18T14:30:15.984Z,53
2016-10-18T14:30:38.575Z,53
2016-10-18T14:30:58.070Z,53
2016-10-18T14:31:20.428Z,53
2016-10-18T14:31:34.242Z,53
2016-10-18T14:31:53.782Z,53
2016-10-18T14:32:13.538Z,53
2016-10-18T14:32:39.059Z,53
2016-10-18T14:32:58.666Z,53
2016-10-18T14:33:15.590Z,53
2016-10-18T14:33:35.763Z,53
2016-10-18T14:33:58.643Z,53
2016-10-18T14:34:16.535Z,53
2016-10-18T14:34:33.244Z,53
2016-10-18T14:34:58.636Z,53
2016-10-18T14:35:22.137Z,53
2016-10-18T14:35:47.593Z,53
2016-10-18T14:36:10.259Z,53
2016-10-18T14:36:25.089Z,53
2016-10-18T14:36:53.251Z,53
2016-10-18T14:37:15.862Z,53
2016-10-18T14:37:38.335Z,53
2016-10-18T14:37:49.408Z,53
2016-10-18T14:38:10.374Z,53
2016-10-18T14:38:33.823Z,53
2016-10-18T14:38:56.348Z,53
2016-10-18T14:39:18.799Z,53
2016-10-18T14:39:32.691Z,53
2016-10-18T14:39:52.195Z,53
2016-10-18T14:40:11.776Z,53
2016-10-18T14:40:34.652Z,53
2016-10-18T14:40:57.286Z,53
2016-10-18T14:41:13.961Z,53
2016-10-18T14:41:30.710Z,53
2016-10-18T14:41:50.540Z,53
2016-10-18T14:42:10.681Z,53
2016-10-18T14:42:33.270Z,53
2016-10-18T14:42:52.838Z,53
2016-10-18T14:43:15.533Z,53
2016-10-18T14:43:29.381Z,53
2016-10-18T14:43:46.854Z,53
2016-10-18T14:44:00.967Z,53
2016-10-18T14:44:23.337Z,53
2016-10-18T14:44:42.934Z,53
2016-10-18T14:45:05.651Z,53
2016-10-18T14:45:22.400Z,53
2016-10-18T14:45:42.089Z,53
2016-10-18T14:46:01.690Z,53
2016-10-18T14:46:24.131Z,53
2016-10-18T14:46:40.624Z,52
2016-10-18T14:46:57.315Z,53
2016-10-18T14:47:26.493Z,53
2016-10-18T14:47:43.017Z,52
2016-10-18T14:47:56.576Z,53
2016-10-18T14:48:17.319Z,53
2016-10-18T14:48:45.520Z,53
2016-10-18T14:49:04.973Z,53
2016-10-18T14:49:25.626Z,53
2016-10-18T14:49:48.058Z,53
2016-10-18T14:50:05.088Z,53
2016-10-18T14:50:25.179Z,53
2016-10-18T14:50:47.443Z,53
2016-10-18T14:51:07.307Z,53
2016-10-18T14:51:26.848Z,53
2016-10-18T14:51:43.898Z,53
2016-10-18T14:52:09.217Z,53
2016-10-18T14:52:28.651Z,53
2016-10-18T14:52:51.030Z,53
2016-10-18T14:53:19.280Z,53
2016-10-18T14:53:47.530Z,53
2016-10-18T14:54:01.652Z,53
2016-10-18T14:54:25.479Z,53
2016-10-18T14:54:45.178Z,53
2016-10-18T14:55:07.680Z,53
2016-10-18T14:55:28.026Z,53
2016-10-18T14:55:53.395Z,53
2016-10-18T14:56:12.784Z,53
2016-10-18T14:56:38.052Z,53
2016-10-18T14:56:57.351Z,53
2016-10-18T14:57:22.596Z,53
2016-10-18T14:57:45.079Z,53
2016-10-18T14:58:07.936Z,53
2016-10-18T14:58:31.363Z,53
2016-10-18T14:58:56.688Z,53
2016-10-18T14:59:19.748Z,53
2016-10-18T14:59:36.576Z,53
2016-10-18T14:59:56.240Z,53
2016-10-18T15:00:21.700Z,53
2016-10-18T15:00:38.602Z,53
2016-10-18T15:01:03.943Z,53
2016-10-18T15:01:29.485Z,53
2016-10-18T15:01:48.970Z,53
2016-10-18T15:02:05.857Z,53
2016-10-18T15:02:19.610Z,53
2016-10-18T15:02:36.215Z,53
2016-10-18T15:02:55.837Z,53
2016-10-18T15:03:15.443Z,53
2016-10-18T15:03:38.128Z,53
2016-10-18T15:03:54.868Z,53
2016-10-18T15:04:20.115Z,53
2016-10-18T15:04:40.001Z,53
2016-10-18T15:05:02.132Z,53
2016-10-18T15:05:24.605Z,53
2016-10-18T15:05:50.031Z,53
2016-10-18T15:06:07.104Z,53
2016-10-18T15:06:23.773Z,53
2016-10-18T15:06:46.804Z,53
2016-10-18T15:07:06.343Z,53
2016-10-18T15:07:28.858Z,53
2016-10-18T15:07:48.477Z,53
2016-10-18T15:08:06.026Z,53
2016-10-18T15:08:31.361Z,53
2016-10-18T15:08:51.218Z,53
2016-10-18T15:09:10.701Z,53
2016-10-18T15:09:28.311Z,53
2016-10-18T15:09:47.505Z,53
2016-10-18T15:10:06.759Z,53
2016-10-18T15:10:33.274Z,53
2016-10-18T15:10:58.670Z,53
2016-10-18T15:11:18.247Z,53
2016-10-18T15:11:35.028Z,53
2016-10-18T15:11:57.739Z,53
2016-10-18T15:12:17.313Z,53
2016-10-18T15:12:36.974Z,53
2016-10-18T15:13:03.291Z,53
2016-10-18T15:13:22.858Z,53
2016-10-18T15:15:22.625Z,53
2016-10-18T15:15:42.276Z,53
2016-10-18T15:16:07.537Z,53
2016-10-18T15:16:33.447Z,53
2016-10-18T15:16:59.015Z,53
2016-10-18T15:17:12.996Z,52
2016-10-18T15:17:23.799Z,53
2016-10-18T15:17:46.356Z,53
2016-10-18T15:18:08.878Z,53
2016-10-18T15:18:31.412Z,53
2016-10-18T15:18:51.061Z,52
2016-10-18T15:19:10.609Z,52
2016-10-18T15:19:25.473Z,52
2016-10-18T15:19:45.831Z,52
2016-10-18T15:20:08.516Z,52
2016-10-18T15:20:28.724Z,52
2016-10-18T15:20:51.012Z,52
2016-10-18T15:21:10.350Z,52
2016-10-18T15:21:32.919Z,52
2016-10-18T15:21:58.091Z,52
2016-10-18T15:22:20.590Z,52
2016-10-18T15:22:40.945Z,52
2016-10-18T15:23:03.393Z,52
2016-10-18T15:23:26.324Z,52
2016-10-18T15:23:40.040Z,52
2016-10-18T15:23:53.643Z,52
2016-10-18T15:24:16.516Z,52
2016-10-18T15:24:36.084Z,52
2016-10-18T15:24:52.654Z,52
2016-10-18T15:25:12.309Z,52
2016-10-18T15:25:31.969Z,52
2016-10-18T15:25:54.254Z,52
2016-10-18T15:26:07.950Z,51
2016-10-18T15:26:22.581Z,51
2016-10-18T15:26:44.888Z,51
2016-10-18T15:27:09.342Z,50
2016-10-18T15:27:31.787Z,51
2016-10-18T15:27:54.142Z,51
2016-10-18T15:28:16.532Z,51
2016-10-18T15:28:34.456Z,50
2016-10-18T15:28:53.922Z,50
2016-10-18T15:29:19.422Z,50
2016-10-18T15:29:41.784Z,50
2016-10-18T15:29:58.561Z,51
2016-10-18T15:30:18.219Z,50
2016-10-18T15:30:40.597Z,50
2016-10-18T15:31:00.146Z,51
2016-10-18T15:31:22.571Z,50
2016-10-18T15:31:42.158Z,50
2016-10-18T15:32:07.448Z,50
2016-10-18T15:32:26.840Z,50
2016-10-18T15:32:52.021Z,50
2016-10-18T15:33:11.550Z,50
2016-10-18T15:33:25.298Z,50
2016-10-18T15:33:44.574Z,50
2016-10-18T15:34:04.165Z,50
2016-10-18T15:34:26.635Z,50
2016-10-18T15:34:43.051Z,51
2016-10-18T15:35:05.288Z,51
2016-10-18T15:35:21.640Z,51
2016-10-18T15:35:35.477Z,51
2016-10-18T15:35:52.219Z,51
2016-10-18T15:36:20.434Z,51
2016-10-18T15:36:37.016Z,51
2016-10-18T15:36:56.475Z,51
2016-10-18T15:37:15.791Z,50
2016-10-18T15:37:38.101Z,51
2016-10-18T15:37:58.174Z,51
2016-10-18T15:38:20.600Z,51
2016-10-18T15:38:43.915Z,51
2016-10-18T15:39:09.266Z,51
2016-10-18T15:39:32.472Z,51
2016-10-18T15:39:50.075Z,51
2016-10-18T15:40:13.480Z,51
2016-10-18T15:40:29.845Z,51
2016-10-18T15:40:55.205Z,51
2016-10-18T15:41:12.002Z,51
2016-10-18T15:41:32.613Z,51
2016-10-18T15:41:57.951Z,51
2016-10-18T15:42:17.483Z,51
2016-10-18T15:42:39.839Z,51
2016-10-18T15:43:02.591Z,51
2016-10-18T15:43:26.050Z,51
2016-10-18T15:43:42.786Z,51
2016-10-18T15:44:08.019Z,51
2016-10-18T15:44:30.498Z,51
2016-10-18T15:44:47.269Z,51
2016-10-18T15:45:06.994Z,51
2016-10-18T15:45:30.268Z,51
2016-10-18T15:45:49.871Z,51
2016-10-18T15:46:06.456Z,51
2016-10-18T15:46:27.116Z,51
2016-10-18T15:46:49.948Z,51
2016-10-18T15:47:18.223Z,51
2016-10-18T15:47:41.513Z,51
2016-10-18T15:48:05.311Z,51
2016-10-18T15:48:27.801Z,51
2016-10-18T15:48:47.381Z,51
2016-10-18T15:49:07.650Z,51
2016-10-18T15:49:34.217Z,51
2016-10-18T15:49:57.621Z,51
2016-10-18T15:50:14.341Z,51
2016-10-18T15:50:30.879Z,51
2016-10-18T15:50:56.799Z,51
2016-10-18T15:51:22.191Z,51
2016-10-18T15:51:44.601Z,51
2016-10-18T15:52:01.330Z,52
2016-10-18T15:52:22.783Z,52
2016-10-18T15:52:48.111Z,52
2016-10-18T15:53:10.681Z,52
2016-10-18T15:53:34.111Z,51
2016-10-18T15:53:48.044Z,52
2016-10-18T15:54:10.575Z,52
2016-10-18T15:54:33.049Z,52
2016-10-18T15:54:52.690Z,52
2016-10-18T15:55:15.148Z,52
2016-10-18T15:55:40.348Z,51
2016-10-18T15:56:06.092Z,52
2016-10-18T15:56:36.258Z,52
2016-10-18T15:57:02.610Z,52
2016-10-18T15:57:25.455Z,52
2016-10-18T15:57:47.846Z,52
2016-10-18T15:58:10.882Z,52
2016-10-18T15:58:33.231Z,52
2016-10-18T15:58:53.238Z,52
2016-10-18T15:59:12.537Z,52
2016-10-18T15:59:34.876Z,52
2016-10-18T15:59:57.382Z,52
2016-10-18T16:00:20.092Z,52
2016-10-18T16:00:46.783Z,52
2016-10-18T16:01:13.262Z,52
2016-10-18T16:01:33.647Z,52
2016-10-18T16:01:56.654Z,52
2016-10-18T16:02:19.075Z,52
2016-10-18T16:02:44.514Z,52
2016-10-18T16:03:03.971Z,52
2016-10-18T16:03:23.961Z,52
2016-10-18T16:03:34.889Z,52
2016-10-18T16:03:54.479Z,52
2016-10-18T16:04:14.231Z,52
2016-10-18T16:04:31.065Z,52
2016-10-18T16:04:45.679Z,52
2016-10-18T16:05:08.166Z,51
2016-10-18T16:05:27.945Z,52
2016-10-18T16:05:47.977Z,52
2016-10-18T16:06:10.332Z,52
2016-10-18T16:06:33.545Z,52
2016-10-18T16:06:50.112Z,52
2016-10-18T16:07:12.636Z,52
2016-10-18T16:07:35.123Z,52
2016-10-18T16:07:57.570Z,52
2016-10-18T16:08:14.726Z,52
2016-10-18T16:08:37.555Z,52
2016-10-18T16:08:57.139Z,51
2016-10-18T16:09:20.518Z,52
2016-10-18T16:09:45.766Z,52
2016-10-18T16:09:59.424Z,52
2016-10-18T16:10:22.368Z,52
2016-10-18T16:10:47.680Z,52
2016-10-18T16:11:13.430Z,52
2016-10-18T16:11:38.684Z,52
2016-10-18T16:11:57.894Z,52
2016-10-18T16:12:14.448Z,51
2016-10-18T16:12:37.244Z,52
2016-10-18T16:12:56.553Z,52
2016-10-18T16:13:22.822Z,52
2016-10-18T16:13:48.374Z,52
2016-10-18T16:14:08.960Z,52
2016-10-18T16:14:28.451Z,51
2016-10-18T16:14:51.293Z,52
2016-10-18T16:15:11.271Z,52
2016-10-18T16:15:30.749Z,52
2016-10-18T16:15:57.078Z,52
2016-10-18T16:16:10.653Z,52
2016-10-18T16:16:39.059Z,52
2016-10-18T16:17:02.045Z,51
2016-10-18T16:17:18.601Z,52
2016-10-18T16:17:35.591Z,52
2016-10-18T16:17:55.130Z,52
2016-10-18T16:18:17.629Z,52
2016-10-18T16:18:43.722Z,51
2016-10-18T16:19:09.635Z,52
2016-10-18T16:19:26.666Z,52
2016-10-18T16:19:49.382Z,52
2016-10-18T16:20:09.418Z,52
2016-10-18T16:20:28.640Z,52
2016-10-18T16:20:51.440Z,52
2016-10-18T16:21:17.907Z,52
2016-10-18T16:21:31.565Z,51
2016-10-18T16:21:54.007Z,51
2016-10-18T16:22:20.397Z,52
2016-10-18T16:22:39.875Z,52
2016-10-18T16:23:00.311Z,52
2016-10-18T16:23:19.991Z,52
2016-10-18T16:23:39.677Z,52
2016-10-18T16:23:59.558Z,52
2016-10-18T16:24:20.128Z,51
2016-10-18T16:24:45.418Z,52
2016-10-18T16:24:59.300Z,52
2016-10-18T16:25:18.822Z,52
2016-10-18T16:25:41.482Z,52
2016-10-18T16:26:01.664Z,52
2016-10-18T16:26:27.367Z,52
2016-10-18T16:26:50.813Z,52
2016-10-18T16:27:10.691Z,52
2016-10-18T16:27:27.681Z,52
2016-10-18T16:27:50.208Z,52
2016-10-18T16:28:09.571Z,52
2016-10-18T16:28:32.883Z,52
2016-10-18T16:29:01.001Z,52
2016-10-18T16:29:20.387Z,52
2016-10-18T16:29:45.777Z,52
2016-10-18T16:30:00.406Z,52
2016-10-18T16:30:15.766Z,52
2016-10-18T16:30:32.406Z,52
2016-10-18T16:30:50.125Z,52
2016-10-18T16:31:15.539Z,52
2016-10-18T16:31:34.577Z,51
2016-10-18T16:31:54.388Z,51
2016-10-18T16:32:13.825Z,51
2016-10-18T16:32:31.511Z,51
2016-10-18T16:32:50.989Z,51
2016-10-18T16:33:07.992Z,51
2016-10-18T16:33:25.105Z,51
2016-10-18T16:33:51.066Z,51
2016-10-18T16:34:20.298Z,51
2016-10-18T16:34:37.076Z,51
2016-10-18T16:34:54.858Z,51
2016-10-18T16:35:17.748Z,51
2016-10-18T16:35:37.389Z,50
2016-10-18T16:36:06.119Z,50
2016-10-18T16:36:17.536Z,50
2016-10-18T16:36:34.132Z,50
2016-10-18T16:36:56.544Z,50
2016-10-18T16:37:19.927Z,50
2016-10-18T16:37:37.079Z,49
2016-10-18T16:37:56.644Z,49
2016-10-18T16:38:13.140Z,49
2016-10-18T16:38:29.943Z,49
2016-10-18T16:38:55.674Z,48
2016-10-18T16:39:16.087Z,48
2016-10-18T16:39:38.583Z,48
2016-10-18T16:39:57.994Z,48
2016-10-18T16:40:14.554Z,47
2016-10-18T16:40:28.276Z,47
2016-10-18T16:40:47.554Z,47
2016-10-18T16:41:07.114Z,47
2016-10-18T16:41:23.665Z,47
2016-10-18T16:41:43.601Z,46
2016-10-18T16:42:03.537Z,46
2016-10-18T16:42:18.125Z,46
2016-10-18T16:42:40.506Z,46
2016-10-18T16:43:00.423Z,46
2016-10-18T16:43:22.881Z,45
2016-10-18T16:43:40.036Z,45
2016-10-18T16:44:02.647Z,45
2016-10-18T16:44:22.129Z,45
2016-10-18T16:44:41.495Z,45
2016-10-18T16:45:03.796Z,45
2016-10-18T16:45:20.586Z,45
2016-10-18T16:45:41.095Z,45
2016-10-18T16:46:03.524Z,44
2016-10-18T16:46:28.817Z,44
2016-10-18T16:46:42.506Z,44
2016-10-18T16:47:02.135Z,43
2016-10-18T16:47:25.153Z,44
2016-10-18T16:47:53.370Z,43
2016-10-18T16:48:10.026Z,43
2016-10-18T16:48:33.188Z,43
2016-10-18T16:48:52.633Z,43
2016-10-18T16:49:18.785Z,43
2016-10-18T16:49:41.252Z,43
2016-10-18T16:49:55.844Z,42
2016-10-18T16:50:18.503Z,42
2016-10-18T16:50:41.340Z,42
2016-10-18T16:50:57.969Z,42
2016-10-18T16:51:14.552Z,42
2016-10-18T16:51:32.695Z,42
2016-10-18T16:51:55.207Z,42
2016-10-18T16:52:13.134Z,42
2016-10-18T16:52:35.508Z,42
2016-10-18T16:53:00.698Z,42
2016-10-18T16:53:23.927Z,42
2016-10-18T16:53:52.122Z,42
2016-10-18T16:54:08.849Z,41
2016-10-18T16:54:25.566Z,41
2016-10-18T16:54:47.937Z,41
2016-10-18T16:55:07.412Z,41
2016-10-18T16:55:32.872Z,41
2016-10-18T16:55:52.392Z,41
2016-10-18T16:56:17.959Z,41
2016-10-18T16:56:40.312Z,41
2016-10-18T16:57:03.223Z,41
2016-10-18T16:57:22.846Z,41
2016-10-18T16:57:45.943Z,41
2016-10-18T16:57:59.617Z,41
2016-10-18T16:58:19.800Z,41
2016-10-18T16:58:42.152Z,41
2016-10-18T16:58:56.043Z,41
2016-10-18T16:59:13.425Z,41
2016-10-18T16:59:30.049Z,41
2016-10-18T16:59:52.647Z,42
2016-10-18T17:00:17.006Z,41
2016-10-18T17:00:39.438Z,42
2016-10-18T17:00:58.995Z,42
2016-10-18T17:01:15.575Z,42
2016-10-18T17:01:41.444Z,42
2016-10-18T17:02:03.726Z,42
2016-10-18T17:02:20.667Z,42
2016-10-18T17:02:37.527Z,42
2016-10-18T17:02:57.150Z,42
2016-10-18T17:03:16.842Z,42
2016-10-18T17:03:39.543Z,42
2016-10-18T17:04:05.963Z,42
2016-10-18T17:04:22.577Z,42
2016-10-18T17:04:41.985Z,42
2016-10-18T17:05:02.491Z,42
2016-10-18T17:05:22.052Z,42
2016-10-18T17:05:47.416Z,42
2016-10-18T17:06:12.850Z,42
2016-10-18T17:06:35.265Z,42
2016-10-18T17:06:55.233Z,42
2016-10-18T17:07:11.918Z,42
2016-10-18T17:07:31.704Z,42
2016-10-18T17:07:54.199Z,43
2016-10-18T17:08:14.318Z,43
2016-10-18T17:08:30.833Z,42
2016-10-18T17:08:56.203Z,43
2016-10-18T17:09:19.108Z,42
2016-10-18T17:09:39.060Z,43
2016-10-18T17:10:05.339Z,43
2016-10-18T17:10:24.817Z,43
2016-10-18T17:10:44.503Z,43
2016-10-18T17:11:06.916Z,43
2016-10-18T17:11:23.604Z,43
2016-10-18T17:11:46.183Z,43
2016-10-18T17:12:03.461Z,43
2016-10-18T17:12:26.264Z,43
2016-10-18T17:12:48.715Z,43
2016-10-18T17:13:11.304Z,43
2016-10-18T17:13:30.964Z,43
2016-10-18T17:13:54.689Z,43
2016-10-18T17:14:17.006Z,43
2016-10-18T17:14:46.264Z,43
2016-10-18T17:15:06.478Z,43
2016-10-18T17:15:29.140Z,43
2016-10-18T17:15:54.606Z,43
2016-10-18T17:16:22.808Z,43
2016-10-18T17:16:45.051Z,43
2016-10-18T17:17:07.857Z,43
2016-10-18T17:17:30.161Z,43
2016-10-18T17:17:52.638Z,43
2016-10-18T17:18:12.257Z,43
2016-10-18T17:18:31.873Z,43
2016-10-18T17:18:51.838Z,43
2016-10-18T17:19:08.612Z,43
2016-10-18T17:19:25.694Z,43
2016-10-18T17:19:48.254Z,43
2016-10-18T17:20:10.683Z,43
2016-10-18T17:20:40.257Z,43
2016-10-18T17:21:02.695Z,43
2016-10-18T17:21:29.982Z,43
2016-10-18T17:21:56.321Z,43
2016-10-18T17:22:18.692Z,43
2016-10-18T17:22:41.076Z,43
2016-10-18T17:23:00.433Z,43
2016-10-18T17:23:16.939Z,43
2016-10-18T17:23:36.507Z,43
2016-10-18T17:23:59.166Z,43
2016-10-18T17:24:22.772Z,43
2016-10-18T17:24:39.403Z,43
2016-10-18T17:25:01.816Z,43
2016-10-18T17:25:27.457Z,43
2016-10-18T17:25:44.491Z,43
2016-10-18T17:26:02.279Z,43
2016-10-18T17:26:25.685Z,43
2016-10-18T17:26:45.278Z,43
2016-10-18T17:27:10.702Z,43
2016-10-18T17:27:33.355Z,43
2016-10-18T17:27:58.817Z,43
2016-10-18T17:28:18.568Z,43
2016-10-18T17:28:40.849Z,43
2016-10-18T17:29:04.449Z,43
2016-10-18T17:29:27.787Z,43
2016-10-18T17:29:50.017Z,43
2016-10-18T17:30:09.627Z,43
2016-10-18T17:30:23.627Z,43
2016-10-18T17:30:40.174Z,43
2016-10-18T17:30:56.881Z,43
2016-10-18T17:31:10.196Z,43
2016-10-18T17:31:33.009Z,43
2016-10-18T17:31:50.158Z,43
2016-10-18T17:32:12.615Z,43
2016-10-18T17:32:29.083Z,43
2016-10-18T17:32:48.792Z,43
2016-10-18T17:33:05.441Z,43
2016-10-18T17:33:30.859Z,43
2016-10-18T17:33:54.772Z,43
2016-10-18T17:34:20.485Z,43
2016-10-18T17:34:34.488Z,43
2016-10-18T17:34:54.196Z,43
2016-10-18T17:35:10.599Z,43
2016-10-18T17:35:28.392Z,43
2016-10-18T17:35:48.094Z,43
2016-10-18T17:36:08.417Z,43
2016-10-18T17:36:19.102Z,43
2016-10-18T17:36:38.401Z,43
2016-10-18T17:36:58.616Z,43
2016-10-18T17:37:12.264Z,43
2016-10-18T17:37:26.238Z,43
2016-10-18T17:37:40.491Z,43
2016-10-18T17:37:59.998Z,43
2016-10-18T17:38:19.498Z,43
2016-10-18T17:38:43.224Z,43
2016-10-18T17:39:05.406Z,43
2016-10-18T17:39:25.966Z,43
2016-10-18T17:39:51.345Z,43
2016-10-18T17:40:17.307Z,43
2016-10-18T17:40:34.641Z,43
2016-10-18T17:40:55.163Z,43
2016-10-18T17:41:14.628Z,43
2016-10-18T17:41:40.584Z,43
2016-10-18T17:42:00.232Z,43
2016-10-18T17:42:26.546Z,43
2016-10-18T17:42:43.627Z,43
2016-10-18T17:43:00.334Z,43
2016-10-18T17:43:23.115Z,43
2016-10-18T17:43:42.792Z,43
2016-10-18T17:44:02.469Z,43
2016-10-18T17:44:27.908Z,43
2016-10-18T17:44:50.328Z,43
2016-10-18T17:45:12.715Z,42
2016-10-18T17:45:36.366Z,43
2016-10-18T17:46:01.608Z,43
2016-10-18T17:46:27.044Z,43
2016-10-18T17:46:43.467Z,42
2016-10-18T17:47:02.925Z,43
2016-10-18T17:47:25.412Z,42
2016-10-18T17:47:45.988Z,42
2016-10-18T17:48:14.193Z,42
2016-10-18T17:48:37.166Z,42
2016-10-18T17:49:02.347Z,42
2016-10-18T17:49:24.792Z,42
2016-10-18T17:49:53.966Z,42
2016-10-18T17:50:16.526Z,42
2016-10-18T17:50:38.913Z,42
2016-10-18T17:50:58.539Z,42
2016-10-18T17:51:21.067Z,42
2016-10-18T17:51:43.473Z,42
2016-10-18T17:52:00.155Z,42
2016-10-18T17:52:19.870Z,42
2016-10-18T17:52:39.361Z,42
2016-10-18T17:52:58.922Z,42
2016-10-18T17:53:21.197Z,42
2016-10-18T17:53:40.827Z,42
2016-10-18T17:53:58.394Z,42
2016-10-18T17:54:14.949Z,42
2016-10-18T17:54:34.906Z,42
2016-10-18T17:55:00.196Z,42
2016-10-18T17:55:20.452Z,42
2016-10-18T17:55:39.725Z,42
2016-10-18T17:56:02.065Z,42
2016-10-18T17:56:21.882Z,42
2016-10-18T17:56:41.386Z,42
2016-10-18T17:57:00.970Z,42
2016-10-18T17:57:20.442Z,42
2016-10-18T17:57:37.162Z,42
2016-10-18T17:58:02.432Z,42
2016-10-18T17:58:21.943Z,42
2016-10-18T17:58:38.538Z,42
2016-10-18T17:58:58.641Z,42
2016-10-18T17:59:22.267Z,42
2016-10-18T17:59:39.885Z,42
2016-10-18T17:59:53.732Z,42
2016-10-18T18:00:21.981Z,42
2016-10-18T18:00:45.136Z,42
2016-10-18T18:01:04.506Z,42
2016-10-18T18:01:23.959Z,42
2016-10-18T18:01:49.245Z,42
2016-10-18T18:02:14.640Z,42
2016-10-18T18:02:31.034Z,42
2016-10-18T18:02:50.547Z,42
2016-10-18T18:03:15.786Z,42
2016-10-18T18:03:32.406Z,42
2016-10-18T18:03:50.096Z,42
2016-10-18T18:04:12.509Z,42
2016-10-18T18:04:37.814Z,42
2016-10-18T18:05:03.318Z,42
2016-10-18T18:05:25.702Z,42
2016-10-18T18:05:48.502Z,42
2016-10-18T18:06:05.226Z,42
2016-10-18T18:06:28.086Z,42
2016-10-18T18:06:50.838Z,42
2016-10-18T18:07:13.271Z,42
2016-10-18T18:07:33.126Z,42
2016-10-18T18:07:58.499Z,42
2016-10-18T18:08:21.616Z,42
2016-10-18T18:08:38.486Z,41
2016-10-18T18:08:57.814Z,42
2016-10-18T18:09:20.259Z,42
2016-10-18T18:09:45.680Z,42
2016-10-18T18:10:05.216Z,41
2016-10-18T18:10:28.854Z,41
2016-10-18T18:10:51.031Z,41
2016-10-18T18:11:13.632Z,41
2016-10-18T18:11:39.450Z,41
2016-10-18T19:22:49.560Z,41
2016-10-18T19:23:00.786Z,41
2016-10-18T19:23:20.540Z,41
2016-10-18T19:23:45.960Z,41
2016-10-18T19:24:08.502Z,40
2016-10-18T19:24:34.335Z,41
2016-10-18T19:24:54.374Z,40
2016-10-18T19:25:22.764Z,40
2016-10-18T19:25:39.583Z,40
2016-10-18T19:26:07.912Z,40
2016-10-18T19:26:33.465Z,40
2016-10-18T19:26:50.105Z,40
2016-10-18T19:27:07.033Z,40
2016-10-18T19:27:33.404Z,40
2016-10-18T19:27:55.881Z,40
2016-10-18T19:28:18.265Z,40
2016-10-18T19:28:40.838Z,40
2016-10-18T19:29:03.209Z,40
2016-10-18T19:29:17.071Z,40
2016-10-18T19:29:36.799Z,40
2016-10-18T19:30:02.220Z,40
2016-10-18T19:30:21.868Z,40
2016-10-18T19:30:44.159Z,40
2016-10-18T19:31:06.623Z,40
2016-10-18T19:31:28.959Z,40
2016-10-18T19:31:45.529Z,40
2016-10-18T19:31:59.241Z,40
2016-10-18T19:32:19.350Z,40
2016-10-18T19:32:41.861Z,40
2016-10-18T19:33:10.628Z,40
2016-10-18T19:33:24.918Z,40
2016-10-18T19:33:44.882Z,40
2016-10-18T19:34:07.212Z,40
2016-10-18T19:34:33.465Z,40
2016-10-18T20:06:26.989Z,41
2016-10-18T20:06:41.277Z,40
2016-10-18T20:07:01.684Z,41
2016-10-18T20:07:15.831Z,41
2016-10-18T20:07:38.755Z,41
2016-10-18T20:07:58.707Z,41
2016-10-18T20:08:27.082Z,41
2016-10-18T20:08:46.925Z,40
2016-10-18T20:09:07.766Z,40
2016-10-18T20:09:27.447Z,40
2016-10-18T20:09:44.330Z,40
2016-10-18T20:10:09.927Z,40
2016-10-18T20:10:29.811Z,40
2016-10-18T20:10:50.730Z,40
2016-10-18T20:11:13.488Z,40
2016-10-18T20:11:30.266Z,40
2016-10-18T20:11:49.981Z,40
2016-10-18T20:12:12.480Z,40
2016-10-18T20:12:31.965Z,40
2016-10-18T20:12:51.687Z,40
2016-10-18T20:13:08.717Z,40
2016-10-18T20:13:31.501Z,40
2016-10-18T20:13:54.116Z,40
2016-10-18T20:14:11.274Z,40
2016-10-18T20:14:33.882Z,40
2016-10-18T20:14:53.434Z,40
2016-10-18T20:15:13.018Z,40
2016-10-18T20:15:33.754Z,40
2016-10-18T20:15:56.400Z,40
2016-10-18T20:16:16.071Z,40
2016-10-18T20:16:26.970Z,40
2016-10-18T20:16:49.492Z,40
2016-10-18T20:17:11.901Z,40
2016-10-18T20:17:38.305Z,40
2016-10-18T20:18:01.114Z,40
2016-10-18T20:18:26.609Z,40
2016-10-18T20:18:46.260Z,40
2016-10-18T20:19:06.238Z,40
2016-10-18T20:19:28.890Z,40
2016-10-18T20:19:51.485Z,40
2016-10-18T20:20:08.286Z,40
2016-10-18T20:20:25.137Z,40
2016-10-18T20:20:48.055Z,40
2016-10-18T20:21:11.188Z,40
2016-10-18T20:21:25.402Z,40
2016-10-18T20:21:48.228Z,40
2016-10-18T20:22:11.169Z,40
2016-10-18T20:22:31.274Z,40
2016-10-18T20:22:51.258Z,40
2016-10-18T20:23:03.057Z,40
2016-10-18T20:23:22.769Z,40
2016-10-18T20:23:45.483Z,40
2016-10-18T20:24:08.347Z,40
2016-10-18T20:24:31.073Z,40
2016-10-18T20:24:51.249Z,40
2016-10-18T20:25:14.193Z,40
2016-10-18T20:25:34.412Z,40
2016-10-18T20:25:48.779Z,40
2016-10-18T20:26:08.615Z,40
2016-10-18T20:26:20.183Z,40
